Terminal Aerodrome Forecast
Issued by NWS

Home | Current Version | Previous Version | Text Only | Print | Product List | Glossary On
Versions: 1 2 3 4 5 6 7 8 9 10 11 12 13 14 15 16 17
262
FTUS43 KEAX 152328
TAFMKC
TAF
KMKC 152328Z 1600/1624 32005KT P6SM SKC
     FM160600 03004KT P6SM FEW250
     FM161600 13008KT P6SM FEW250=

USA.gov is the U.S. government's official web portal to all federal, state and local government web resources and services.